Nearby METAR Reports

 

KHFD - Hartford/Brainar, Connecticut, USA
Distance from station: ESE 5mi, 8km
Updated: Mon, 17-Jan-2022 8:11pm EST
Overcast
Overcast
 Wind from SSW
Wind: SSW 9 mph , 15 km/h
Temperature: 36°F , 2°C
Wind Chill: 29°F , -2°C
Dew Point: 30°F , -1°C
Humidity: 81%
Barometer: 29.19 inHg , 988.5 hPa
Clouds: Overcast
Visibility: 8 miles , 13 km
Cloud details: Few Clouds 900 ft
Partly cloudy 2100 ft
Overcast 2800 ft
2022/01/18 01:11 KHFD 180111Z 20008KT 8SM FEW009 SCT021 OVC028 02/M01 A2919 RMK AO2 SNE09 P0000 T00171006
KBDL - Windsor Locks, Connecticut, USA
Distance from station: NNE 12mi, 20km
Updated: Mon, 17-Jan-2022 8:00pm EST
Light drizzle, Mist, Overcast
Light drizzle, Mist, Overcast
 Wind from S
Wind: S 10 mph , 17 km/h
Temperature: 34°F , 1°C
Wind Chill: 26°F , -3°C
Dew Point: 30°F , -1°C
Humidity: 87%
Barometer: 29.17 inHg , 987.8 hPa
Summary: Light drizzle, Mist
Clouds: Overcast
Visibility: 1 3/4 miles , 2.8 km
Cloud details: Partly cloudy 600 ft
Partly cloudy 1500 ft
Overcast 2500 ft
2022/01/18 01:00 KBDL 180100Z 19009KT 1 3/4SM -DZ BR SCT006 SCT015 OVC025 01/M01 A2917 RMK AO2 SFC VIS 4 DZB0059SNE0059 P0000 T00061006
 
KMMK - Meriden, Connecticut, USA
Distance from station: SSW 18mi, 28km
Updated: Mon, 17-Jan-2022 8:06pm EST
Light snow, Mist, Overcast
Light snow, Mist, Overcast
 Wind from S
Wind: S 6 mph , 9 km/h
Temperature: 34°F , 1°C
Wind Chill: 29°F , -2°C
Dew Point: 30°F , -1°C
Humidity: 87%
Barometer: 29.20 inHg , 988.8 hPa
Summary: Light snow, Mist
Clouds: Overcast
Visibility: 6 miles , 10 km
Cloud details: Few Clouds 1500 ft
Overcast 3100 ft
2022/01/18 01:06 KMMK 180106Z AUTO 17005KT 6SM -SN BR FEW015 OVC031 01/M01 A2920 RMK AO2 P0000 T00061006 $
KBAF - Westfield, Massachusetts, USA
Distance from station: N 28mi, 45km
Updated: Mon, 17-Jan-2022 8:11pm EST
Overcast
Overcast
 Wind from S
Wind: S 10 mph , 17 km/h
Temperature: 34°F , 1°C
Wind Chill: 26°F , -3°C
Dew Point: 30°F , -1°C
Humidity: 87%
Barometer: 29.16 inHg , 987.5 hPa
Clouds: Overcast
Visibility: 10 miles , 16 km
Cloud details: Partly cloudy 700 ft
Mostly cloudy 1600 ft
Overcast 3100 ft
2022/01/18 01:11 KBAF 180111Z 19009KT 10SM SCT007 BKN016 OVC031 01/M01 A2916 RMK AO2 SNE02 P0000 T00061006
 
KIJD - Willimantic, Connecticut, USA
Distance from station: E 29mi, 46km
Updated: Mon, 17-Jan-2022 8:23pm EST
Light snow, Mist, Overcast
Light snow, Mist, Overcast
 Wind from SSW
Wind: SSW 7 mph , 11 km/h
Temperature: 34°F , 1°C
Wind Chill: 28°F , -2°C
Dew Point: 30°F , -1°C
Humidity: 87%
Barometer: 29.18 inHg , 988.1 hPa
Summary: Light snow, Mist
Clouds: Overcast
Visibility: 2 1/2 miles , 4 km
Cloud details: Mostly cloudy 1000 ft
Overcast 1600 ft
2022/01/18 01:23 KIJD 180123Z AUTO 21006KT 2 1/2SM -SN BR BKN010 OVC016 01/M01 A2918 RMK AO2 CIG 007V013 P0000 T00061006 TSNO
KOXC - Oxford/Waterbury, Connecticut, USA
Distance from station: SW 29mi, 46km
Updated: Mon, 17-Jan-2022 7:51pm EST
Light snow, Mist, Overcast
Light snow, Mist, Overcast
 Wind from WSW
Wind: WSW 7 mph , 11 km/h
Temperature: 32°F , 0°C
Wind Chill: 25°F , -4°C
Dew Point: 30°F , -1°C
Humidity: 93%
Barometer: 29.18 inHg , 988.1 hPa
Summary: Light snow, Mist
Clouds: Overcast
Visibility: 4 miles , 6 km
Cloud details: Overcast 2600 ft
2022/01/18 00:51 KOXC 180051Z 24006KT 4SM -SN BR OVC026 00/M01 A2918 RMK AO2 SLP898 P0000 T00001011
 
KSNC - Chester, Connecticut, USA
Distance from station: SSE 29mi, 47km
Updated: Mon, 17-Jan-2022 8:15pm EST
Light snow, Overcast
Light snow, Overcast
 Wind from WSW
Wind: WSW 12 mph , 19 km/h
Temperature: 34°F , 1°C
Wind Chill: 25°F , -4°C
Dew Point: 32°F , 0°C
Humidity: 93%
Barometer: 29.19 inHg , 988.5 hPa
Summary: Light Snow
Clouds: Overcast
Visibility: 5 miles , 8 km
Cloud details: Few Clouds 100 ft
Mostly cloudy 600 ft
Overcast 1200 ft
2022/01/18 01:15 KSNC 180115Z AUTO 24010KT 5SM -SN FEW001 BKN006 OVC012 01/00 A2919 RMK AO2
KCEF - Chicopee/Westove, Massachusetts, USA
Distance from station: NNE 32mi, 52km
Updated: Mon, 17-Jan-2022 7:56pm EST
Light snow, Overcast
Light snow, Overcast
 Wind from SW
Wind: SW 9 mph , 15 km/h
Temperature: 34°F , 1°C
Wind Chill: 27°F , -3°C
Dew Point: 32°F , 0°C
Humidity: 93%
Barometer: 29.14 inHg , 986.8 hPa
Summary: Light Snow
Clouds: Overcast
Visibility: 10 miles , 16 km
Cloud details: Overcast 600 ft
2022/01/18 00:56 KCEF 180056Z 23008KT 10SM -SN OVC006 01/00 A2914 RMK AO2A SLPNO ALSTG ESTMD P0000 T00080001 $
 
KHVN - New Haven/Tweed, Connecticut, USA
Distance from station: S 35mi, 56km
Updated: Mon, 17-Jan-2022 7:53pm EST
Overcast
Overcast
 Wind from WSW
Wind: WSW 14 mph , 22 km/h, Gust: 23 mph , 37 km/h
Temperature: 37°F , 3°C
Wind Chill: 28°F , -2°C
Dew Point: 34°F , 1°C
Humidity: 87%
Barometer: 29.21 inHg , 989.2 hPa
Clouds: Overcast
Visibility: 10 miles , 16 km
Cloud details: Mostly cloudy 3700 ft
Overcast 4500 ft
2022/01/18 00:53 KHVN 180053Z 24012G20KT 10SM BKN037 OVC045 03/01 A2921 RMK AO2 SNE14 SLP891 P0000 T00280006
KBDR - Bridgeport, Connecticut, USA
Distance from station: SSW 46mi, 74km
Updated: Mon, 17-Jan-2022 7:52pm EST
Overcast
Overcast
 Wind from WSW
Wind: WSW 13 mph , 20 km/h, Gust: 23 mph , 37 km/h
Temperature: 36°F , 2°C
Wind Chill: 27°F , -3°C
Dew Point: 30°F , -1°C
Humidity: 81%
Barometer: 29.23 inHg , 989.8 hPa
Clouds: Overcast
Visibility: 10 miles , 16 km
Cloud details: Few Clouds 3800 ft
Overcast 4900 ft
2022/01/18 00:52 KBDR 180052Z 24011G20KT 10SM FEW038 OVC049 02/M01 A2923 RMK AO2 UPE24RAB05E16 SLP897 P0000 T00221006
 
KGON - Groton/New Londo, Connecticut, USA
Distance from station: SE 46mi, 75km
Updated: Mon, 17-Jan-2022 7:56pm EST
Light snow, Overcast
Light snow, Overcast
 Wind from WSW
Wind: WSW 18 mph , 30 km/h, Gust: 28 mph , 44 km/h
Temperature: 36°F , 2°C
Wind Chill: 26°F , -3°C
Dew Point: 30°F , -1°C
Humidity: 81%
Barometer: 29.21 inHg , 989.2 hPa
Summary: Light Snow
Clouds: Overcast
Visibility: 9 miles , 14 km
Cloud details: Few Clouds 1900 ft
Overcast 2400 ft
2022/01/18 00:56 KGON 180056Z 25016G24KT 9SM -SN FEW019 OVC024 02/M01 A2921 RMK AO2 PK WND 28027/0026 UPB34E47SNB47 SLP890 P0000 T00171006
KDXR - Danbury, Connecticut, USA
Distance from station: SW 47mi, 76km
Updated: Mon, 17-Jan-2022 7:53pm EST
Overcast
Overcast
 Wind from W
Wind: W 12 mph , 19 km/h, Gust: 20 mph , 31 km/h
Temperature: 37°F , 3°C
Wind Chill: 29°F , -2°C
Dew Point: 25°F , -4°C
Humidity: 60%
Barometer: 29.22 inHg , 989.5 hPa
Clouds: Overcast
Visibility: 10 miles , 16 km
Cloud details: Mostly cloudy 4200 ft
Mostly cloudy 4900 ft
Overcast 6500 ft
2022/01/18 00:53 KDXR 180053Z 27010G17KT 10SM BKN042 BKN049 OVC065 03/M04 A2922 RMK AO2 SLP895 T00281044 $
 
KPSF - Pittsfield, Massachusetts, USA
Distance from station: NNW 54mi, 87km
Updated: Mon, 17-Jan-2022 7:54pm EST
Light snow, Overcast
Light snow, Overcast
 Wind from WNW
Wind: WNW 12 mph , 19 km/h, Gust: 24 mph , 39 km/h
Temperature: 30°F , -1°C
Wind Chill: 20°F , -7°C
Dew Point: 23°F , -5°C
Humidity: 75%
Barometer: 29.13 inHg , 986.5 hPa
Summary: Light Snow
Clouds: Overcast
Visibility: 6 miles , 10 km
Cloud details: Few Clouds 1400 ft
Overcast 2200 ft
2022/01/18 00:54 KPSF 180054Z AUTO 30010G21KT 6SM -SN FEW014 OVC022 M01/M05 A2913 RMK AO2 SNE24B45 SLP872 P0000 T10111050
KWST - Westerly, Rhode Island, USA
Distance from station: ESE 56mi, 91km
Updated: Mon, 17-Jan-2022 7:53pm EST
Overcast
Overcast
 Wind from SW
Wind: SW 13 mph , 20 km/h, Gust: 24 mph , 39 km/h
Temperature: 37°F , 3°C
Wind Chill: 29°F , -2°C
Dew Point: 28°F , -2°C
Humidity: 70%
Barometer: 29.21 inHg , 989.2 hPa
Clouds: Overcast
Visibility: 10 miles , 16 km
Cloud details: Overcast 2700 ft
2022/01/18 00:53 KWST 180053Z AUTO 23011G21KT 10SM OVC027 03/M02 A2921 RMK AO2 SLP890 T00281017
 
KORH - Worcester, Massachusetts, USA
Distance from station: NE 57mi, 92km
Updated: Mon, 17-Jan-2022 8:23pm EST
Light snow, Mist, Overcast
Light snow, Mist, Overcast
 Wind from SW
Wind: SW 17 mph , 28 km/h
Temperature: 32°F , 0°C
Wind Chill: 21°F , -6°C
Dew Point: 30°F , -1°C
Humidity: 93%
Barometer: 29.12 inHg , 986.1 hPa
Summary: Light snow, Mist
Clouds: Overcast
Visibility: 3 miles , 5 km
Cloud details: Overcast 800 ft
2022/01/18 01:23 KORH 180123Z 23015KT 3SM -SN BR OVC008 00/M01 A2912 RMK AO2 CIG 005V011 P0001 T00001011
KPOU - Poughkeepsie, New York, USA
Distance from station: W 60mi, 96km
Updated: Mon, 17-Jan-2022 7:53pm EST
Overcast
Overcast
 Wind from W
Wind: W 14 mph , 22 km/h
Temperature: 36°F , 2°C
Wind Chill: 27°F , -3°C
Dew Point: 23°F , -5°C
Humidity: 60%
Barometer: 29.23 inHg , 989.8 hPa
Clouds: Overcast
Visibility: 10 miles , 16 km
Cloud details: Few Clouds 4800 ft
Overcast 8500 ft
2022/01/18 00:53 KPOU 180053Z 27012KT 10SM FEW048 OVC085 02/M05 A2923 RMK AO2 PK WND 27026/0025 SLP895 T00221050
 
KORE - Orange, Massachusetts, USA
Distance from station: NNE 60mi, 97km
Updated: Mon, 17-Jan-2022 8:19pm EST
Overcast
Overcast
 Wind from SSW
Wind: SSW 10 mph , 17 km/h
Temperature: 34°F , 1°C
Wind Chill: 26°F , -3°C
Dew Point: 30°F , -1°C
Humidity: 87%
Barometer: 29.13 inHg , 986.5 hPa
Clouds: Overcast
Visibility: 10 miles , 16 km
Cloud details: Partly cloudy 1300 ft
Mostly cloudy 3600 ft
Overcast 4500 ft
2022/01/18 01:19 KORE 180119Z AUTO 20009KT 10SM SCT013 BKN036 OVC045 01/M01 A2913 RMK AO2 T00111011
KHTO - East Hampton, New York, USA
Distance from station: SSE 62mi, 99km
Updated: Mon, 17-Jan-2022 8:15pm EST
Light snow, Overcast
Light snow, Overcast
 Wind from WSW
Wind: WSW 13 mph , 20 km/h, Gust: 20 mph , 31 km/h
Temperature: 34°F , 1°C
Wind Chill: 25°F , -4°C
Dew Point: 32°F , 0°C
Humidity: 93%
Barometer: 29.24 inHg , 990.2 hPa
Summary: Light Snow
Clouds: Overcast
Visibility: 4 miles , 6 km
Cloud details: Overcast 1500 ft
2022/01/18 01:15 KHTO 180115Z AUTO 24011G17KT 4SM -SN OVC015 01/00 A2924 RMK AO2 T00051005
 
KFOK - Westhampton Beac, New York, USA
Distance from station: S 63mi, 102km
Updated: Mon, 17-Jan-2022 8:16pm EST
Overcast
Overcast
 Wind from WSW
Wind: WSW 16 mph , 26 km/h, Gust: 24 mph , 39 km/h
Temperature: 34°F , 1°C
Wind Chill: 24°F , -4°C
Dew Point: 30°F , -1°C
Humidity: 87%
Barometer: 29.27 inHg , 991.2 hPa
Clouds: Overcast
Visibility: 10 miles , 16 km
Cloud details: Partly cloudy 1300 ft
Partly cloudy 4900 ft
Overcast 6000 ft
2022/01/18 01:16 KFOK 180116Z 25014G21KT 10SM SCT013 SCT049 OVC060 01/M01 A2927 RMK AO2 UPB02E11SNE0057 P0000 T00111011
KMTP - Montauk, New York, USA
Distance from station: SE 64mi, 104km
Updated: Mon, 17-Jan-2022 7:54pm EST

 Wind from WSW
Wind: WSW 10 mph , 17 km/h, Gust: 20 mph , 31 km/h
Temperature: 37°F , 3°C
Wind Chill: 30°F , -1°C
Dew Point: 28°F , -2°C
Humidity: 70%
Barometer: 29.23 inHg , 989.8 hPa
2022/01/18 00:54 KMTP 180054Z AUTO 24009G17KT 03/M02 A2923 RMK AO1 SLP899 T00281017